首页
METAR-TAF:

METAR-TAF

机场 :

Hurlburt Field

Mary Esther, 佛罗里达州, 美国

纬度: 30-25N, 经度: 086-41W, 海拔: 12米

当前天气观测

该预报发布于1小时和4分钟前的13:56 UTC
风速6节,风向东转东北
温度 9°C
湿度 61%
气压 1025 hPa
能見度: 16.1公里
少量云层高于20000英尺

METAR: KHRT 231356Z 07006KT 10SM FEW200 09/02 A3028 RMK AO2A SLP256 T00880015 $

时间: 09:00 (15:00 UTC)

预报

该预报发布于5小时和0分钟前的10:00 UTC
预报有效从23日的 10点(UTC)到 24日的 16点(UTC)
风速5节,风向
能见度10公里或以上
少量云层高于20000英尺
成为
从 24日的 02点(UTC)到 24日的 03点(UTC)
风速10节,风向南转南东
能见度10公里或以上
少量云层高于3000英尺
成为
从 24日的 05点(UTC)到 24日的 06点(UTC)
风速15节,风向
能见度10公里或以上
多云层高于3000英尺
成为
从 24日的 10点(UTC)到 24日的 11点(UTC)
风速20节,风向
能見度: 8000
多云层高于2000英尺
小阵雨

TAF: KHRT 231000Z 2310/2416 36005KT 9999 FEW200 QNH3025INS BECMG 2402/2403 16010KT 9999 FEW030 QNH3010INS BECMG 2405/2406 18015KT 9999 BKN030 QNH3012INS BECMG 2410/2411 18020KT 8000 -SHRA BKN020 QNH3005INS TX14/2320Z TN02/2312Z

超过4000个机场的气象观测和天气预报(METAR&TAF报告)。

可查询的气象台以黄色和红色小点在地图上表示。

将鼠标移到小点上方,可查看气象台名称。

然后点击查看天气观测和预报。

如需切换地图:点击带黑十字的绿色按钮放大地图;点击带横线的绿色按钮缩小地图;或者点击绿色箭头查看邻近地区的地图。


METAR-TAF: